Time;durP1;ratioP1;P1;durP2;ratioP2;P2;SDS_P1;SDS_P2;PMS_P1;PMS_P2;Temp;Humidity;BMP_temperature;BMP_pressure;BME280_temperature;BME280_humidity;BME280_pressure;Samples;Min_cycle;Max_cycle;Signal;HPM_P1;HPM_P2
2023/02/18 00:01:46;;;;;;;;;;;;;;;;;;5066762;28;19933;-45
2023/02/18 00:04:12;;;;;;;;;;;;;;;;;;5084913;28;19904;-47
2023/02/18 00:06:38;;;;;;;;;;;;;;;;;;5084596;28;20423;-46
2023/02/18 00:09:04;;;;;;;;;;;;;;;;;;5066094;28;19908;-45
2023/02/18 00:11:31;;;;;;;;;;;;;;;;;;5066659;28;19919;-46
2023/02/18 00:13:56;;;;;;;;;;;;;;;;;;5084327;28;19933;-47
2023/02/18 00:16:22;;;;;;;;;;;;;;;;;;5100888;28;19916;-44
2023/02/18 00:18:48;;;;;;;;;;;;;;;;;;5084405;28;19915;-45
2023/02/18 00:21:14;;;;;;;;;;;;;;;;;;5084689;28;19947;-47
2023/02/18 00:23:41;;;;;;;;;;;;;;;;;;5083928;28;19942;-46
2023/02/18 00:26:07;;;;;;;;;;;;;;;;;;5084214;28;19908;-46
2023/02/18 00:28:33;;;;;;;;;;;;;;;;;;5084848;28;19946;-48
2023/02/18 00:31:00;;;;;;;;;;;;;;;;;;5084202;28;19967;-48
2023/02/18 00:33:26;;;;;;;;;;;;;;;;;;5083809;28;19904;-46
2023/02/18 00:35:51;;;;;;;;;;;;;;;;;;5085002;28;20174;-48
2023/02/18 00:38:17;;;;;;;;;;;;;;;;;;5084516;28;19966;-46
2023/02/18 00:40:43;;;;;;;;;;;;;;;;;;5083972;28;19990;-45
2023/02/18 00:43:09;;;;;;;;;;;;;;;;;;5084387;28;19947;-45
2023/02/18 00:45:35;;;;;;;;;;;;;;;;;;5084458;28;19908;-45
2023/02/18 00:48:01;;;;;;;;;;;;;;;;;;5084209;28;19916;-47
2023/02/18 00:50:28;;;;;;;;;;;;;;;;;;5084258;28;20433;-46
2023/02/18 00:52:54;;;;;;;;;;;;;;;;;;5084492;28;20447;-45
2023/02/18 00:55:19;;;;;;;;;;;;;;;;;;5084764;28;19998;-44
2023/02/18 00:57:45;;;;;;;;;;;;;;;;;;5084062;28;19904;-45
2023/02/18 01:00:12;;;;;;;;;;;;;;;;;;5084609;28;19915;-46
2023/02/18 01:02:38;;;;;;;;;;;;;;;;;;5084202;28;19908;-47
2023/02/18 06:10:45;;;;;;;;;;;;;;;;;;5086910;28;20405;-46
2023/02/18 06:13:11;;;;;;;;;;;;;;;;;;5088463;28;19916;-46
2023/02/18 06:15:37;;;;;;;;;;;;;;;;;;5090025;28;19912;-46
2023/02/18 06:18:03;;;;;;;;;;;;;;;;;;5090158;28;19904;-47
2023/02/18 06:20:30;;;;;;;;;;;;;;;;;;5090124;28;19908;-46
2023/02/18 06:22:56;;;;;;;;;;;;;;;;;;5089578;28;20347;-50
2023/02/18 06:25:22;;;;;;;;;;;;;;;;;;5089514;28;19990;-49
2023/02/18 06:27:48;;;;;;;;;;;;;;;;;;5089821;28;19916;-47
2023/02/18 06:30:14;;;;;;;;;;;;;;;;;;5089433;28;19915;-46
2023/02/18 06:32:39;;;;;;;;;;;;;;;;;;5089453;28;19930;-45
2023/02/18 06:35:05;;;;;;;;;;;;;;;;;;5089267;28;19910;-48
2023/02/18 06:37:31;;;;;;;;;;;;;;;;;;5089874;28;19951;-48
2023/02/18 06:39:57;;;;;;;;;;;;;;;;;;5089333;28;19908;-48
2023/02/18 06:42:23;;;;;;;;;;;;;;;;;;5089078;28;19912;-46
2023/02/18 06:44:50;;;;;;;;;;;;;;;;;;5089240;28;19904;-46
2023/02/18 06:47:16;;;;;;;;;;;;;;;;;;5089453;28;19904;-45
2023/02/18 06:49:42;;;;;;;;;;;;;;;;;;5089108;28;19939;-46
2023/02/18 06:52:08;;;;;;;;;;;;;;;;;;5088963;28;19955;-46
2023/02/18 06:54:35;;;;;;;;;;;;;;;;;;5089213;28;19951;-48
2023/02/18 06:57:00;;;;;;;;;;;;;;;;;;5089434;28;19904;-48
2023/02/18 06:59:26;;;;;;;;;;;;;;;;;;5088982;28;19910;-46
2023/02/18 07:01:52;;;;;;;;;;;;;;;;;;5089127;28;20023;-47
2023/02/18 07:04:18;;;;;;;;;;;;;;;;;;5088944;28;19962;-46
2023/02/18 07:06:44;;;;;;;;;;;;;;;;;;5088227;28;19911;-46
2023/02/18 07:09:10;;;;;;;;;;;;;;;;;;5088549;28;19948;-48
2023/02/18 07:11:37;;;;;;;;;;;;;;;;;;5088687;28;19945;-46
2023/02/18 07:14:04;;;;;;;;;;;;;;;;;;5089048;28;19923;-45
2023/02/18 07:16:29;;;;;;;;;;;;;;;;;;5089084;28;19934;-47
2023/02/18 07:18:55;;;;;;;;;;;;;;;;;;5088629;28;19904;-45
2023/02/18 07:21:21;;;;;;;;;;;;;;;;;;5088608;28;19999;-46
2023/02/18 07:23:48;;;;;;;;;;;;;;;;;;5088396;28;19919;-49
2023/02/18 07:26:14;;;;;;;;;;;;;;;;;;5088707;28;19996;-48
2023/02/18 07:28:40;;;;;;;;;;;;;;;;;;5088419;28;20385;-45
2023/02/18 07:31:06;;;;;;;;;;;;;;;;;;5087901;28;19912;-46
2023/02/18 07:33:33;;;;;;;;;;;;;;;;;;5104426;28;19908;-46
2023/02/18 07:35:59;;;;;;;;;;;;;;;;;;5088315;28;19908;-48
2023/02/18 07:38:26;;;;;;;;;;;;;;;;;;5088249;28;20009;-47
2023/02/18 07:40:52;;;;;;;;;;;;;;;;;;5088322;28;19908;-46
2023/02/18 07:43:18;;;;;;;;;;;;;;;;;;5087416;28;19923;-48
2023/02/18 07:45:44;;;;;;;;;;;;;;;;;;5087273;28;19915;-45
2023/02/18 07:48:10;;;;;;;;;;;;;;;;;;5087450;28;20049;-48
2023/02/18 07:50:36;;;;;;;;;;;;;;;;;;5088358;28;19999;-48
2023/02/18 07:53:02;;;;;;;;;;;;;;;;;;5088710;28;19946;-47
2023/02/18 07:58:12;;;;;;;;;;;;;;;;;;5088542;28;19919;-47
2023/02/18 08:00:38;;;;;;;;;;;;;;;;;;5088590;28;20326;-46
2023/02/18 08:03:04;;;;;;;;;;;;;;;;;;5089130;28;20034;-46
2023/02/18 08:05:30;;;;;;;;;;;;;;;;;;5089694;28;19904;-47
2023/02/18 08:07:56;;;;;;;;;;;;;;;;;;5088932;28;19915;-49
2023/02/18 08:10:22;;;;;;;;;;;;;;;;;;5108431;28;19929;-47
2023/02/18 08:12:48;;;;;;;;;;;;;;;;;;5094501;28;19958;-46
2023/02/18 08:15:14;;;;;;;;;;;;;;;;;;5100841;28;19908;-47
2023/02/18 08:17:40;;;;;;;;;;;;;;;;;;5072219;28;19948;-46
2023/02/18 08:20:06;;;;;;;;;;;;;;;;;;5086645;28;19908;-46
2023/02/18 08:22:32;;;;;;;;;;;;;;;;;;5086514;28;19931;-48
2023/02/18 08:24:58;;;;;;;;;;;;;;;;;;5087439;28;19912;-44
2023/02/18 08:27:24;;;;;;;;;;;;;;;;;;5086997;28;19912;-46
2023/02/18 08:29:50;;;;;;;;;;;;;;;;;;5087021;28;19957;-46
2023/02/18 08:32:15;;;;;;;;;;;;;;;;;;5086692;28;19965;-47
2023/02/18 08:34:41;;;;;;;;;;;;;;;;;;5087895;28;19930;-44
2023/02/18 08:37:07;;;;;;;;;;;;;;;;;;5087142;28;19938;-46
2023/02/18 08:39:34;;;;;;;;;;;;;;;;;;5087174;28;19912;-46
2023/02/18 08:42:00;;;;;;;;;;;;;;;;;;5086706;28;19916;-46
2023/02/18 08:44:26;;;;;;;;;;;;;;;;;;5087111;28;20002;-47
2023/02/18 08:46:51;;;;;;;;;;;;;;;;;;5087197;28;19958;-47
2023/02/18 08:49:19;;;;;;;;;;;;;;;;;;5085874;28;20109;-47
2023/02/18 08:51:45;;;;;;;;;;;;;;;;;;5086587;28;20132;-47
2023/02/18 08:54:11;;;;;;;;;;;;;;;;;;5087410;28;20010;-46
2023/02/18 08:56:38;;;;;;;;;;;;;;;;;;5086818;28;19930;-49
2023/02/18 08:59:04;;;;;;;;;;;;;;;;;;5087131;28;19908;-49
2023/02/18 09:01:30;;;;;;;;;;;;;;;;;;5086994;28;19904;-46
2023/02/18 09:03:56;;;;;;;;;;;;;;;;;;5086505;28;19912;-45
2023/02/18 09:06:22;;;;;;;;;;;;;;;;;;5086717;28;19904;-46
2023/02/18 09:08:48;;;;;;;;;;;;;;;;;;5086945;28;19915;-46
2023/02/18 09:11:14;;;;;;;;;;;;;;;;;;5087391;28;19919;-46
2023/02/18 09:13:40;;;;;;;;;;;;;;;;;;5087179;28;19985;-45
2023/02/18 09:16:06;;;;;;;;;;;;;;;;;;5088167;28;19970;-47
2023/02/18 09:18:34;;;;;;;;;;;;;;;;;;5087293;28;19904;-45
2023/02/18 09:21:00;;;;;;;;;;;;;;;;;;5086792;28;19911;-48
2023/02/18 09:23:26;;;;;;;;;;;;;;;;;;5086644;28;19908;-46
2023/02/18 09:25:52;;;;;;;;;;;;;;;;;;5086523;28;19912;-46
2023/02/18 09:28:18;;;;;;;;;;;;;;;;;;5085422;28;19916;-46
2023/02/18 09:30:44;;;;;;;;;;;;;;;;;;5083205;28;19919;-51
2023/02/18 09:33:10;;;;;;;;;;;;;;;;;;5086689;28;19919;-50
2023/02/18 09:35:36;;;;;;;;;;;;;;;;;;5086101;28;19930;-51
2023/02/18 09:38:02;;;;;;;;;;;;;;;;;;5087767;28;19911;-51
2023/02/18 09:40:28;;;;;;;;;;;;;;;;;;5064937;28;20311;-52
2023/02/18 09:42:53;;;;;;;;;;;;;;;;;;5087132;28;19927;-52
2023/02/18 09:45:20;;;;;;;;;;;;;;;;;;5089868;28;19998;-53
2023/02/18 09:47:46;;;;;;;;;;;;;;;;;;5090122;28;20007;-52
2023/02/18 09:50:12;;;;;;;;;;;;;;;;;;5089093;28;19998;-50
2023/02/18 09:52:38;;;;;;;;;;;;;;;;;;5090000;28;20412;-51
2023/02/18 09:55:04;;;;;;;;;;;;;;;;;;5107734;28;19908;-53
2023/02/18 09:57:31;;;;;;;;;;;;;;;;;;5110176;28;19911;-51
2023/02/18 09:59:57;;;;;;;;;;;;;;;;;;5110192;28;19922;-50
2023/02/18 10:02:22;;;;;;;;;;;;;;;;;;5110345;28;19904;-50
2023/02/18 10:04:51;;;;;;;;;;;;;;;;;;5110203;28;19904;-50
2023/02/18 10:07:16;;;;;;;;;;;;;;;;;;5094673;28;20007;-47
2023/02/18 10:09:42;;;;;;;;;;;;;;;;;;5082373;28;19987;-47
2023/02/18 10:12:08;;;;;;;;;;;;;;;;;;5088021;28;19912;-50
2023/02/18 10:14:34;;;;;;;;;;;;;;;;;;5079785;28;19916;-50
2023/02/18 10:17:00;;;;;;;;;;;;;;;;;;5088453;28;19912;-52
2023/02/18 10:19:26;;;;;;;;;;;;;;;;;;5089524;28;20308;-48
2023/02/18 10:21:52;;;;;;;;;;;;;;;;;;5089166;28;19908;-49
2023/02/18 10:24:18;;;;;;;;;;;;;;;;;;5089652;28;19920;-47
2023/02/18 10:26:44;;;;;;;;;;;;;;;;;;5089105;28;19908;-49
2023/02/18 10:29:10;;;;;;;;;;;;;;;;;;5089186;28;19904;-49
2023/02/18 10:31:36;;;;;;;;;;;;;;;;;;5088905;28;20006;-48
2023/02/18 10:34:01;;;;;;;;;;;;;;;;;;5087635;28;19908;-49
2023/02/18 10:36:27;;;;;;;;;;;;;;;;;;5089573;28;19912;-49
2023/02/18 10:38:54;;;;;;;;;;;;;;;;;;5089566;28;19924;-50
2023/02/18 10:41:20;;;;;;;;;;;;;;;;;;5069845;28;19961;-48
2023/02/18 10:43:46;;;;;;;;;;;;;;;;;;5079057;28;19995;-50
2023/02/18 10:46:12;;;;;;;;;;;;;;;;;;5088531;28;19927;-51
2023/02/18 10:48:38;;;;;;;;;;;;;;;;;;5088560;28;19920;-49
2023/02/18 10:51:05;;;;;;;;;;;;;;;;;;5088609;28;19911;-49
2023/02/18 10:53:30;;;;;;;;;;;;;;;;;;5088356;28;19912;-51
2023/02/18 10:55:57;;;;;;;;;;;;;;;;;;5089151;28;20028;-50
2023/02/18 10:58:23;;;;;;;;;;;;;;;;;;5089292;28;20374;-52
2023/02/18 11:00:49;;;;;;;;;;;;;;;;;;5088121;28;19908;-51
2023/02/18 11:03:16;;;;;;;;;;;;;;;;;;5088387;28;19962;-51
2023/02/18 11:05:42;;;;;;;;;;;;;;;;;;5088441;28;19932;-49
2023/02/18 11:08:08;;;;;;;;;;;;;;;;;;5089366;28;19970;-50
2023/02/18 11:10:34;;;;;;;;;;;;;;;;;;5088125;28;19939;-50
2023/02/18 11:13:00;;;;;;;;;;;;;;;;;;5088094;28;20366;-49
2023/02/18 11:15:25;;;;;;;;;;;;;;;;;;5088821;28;19908;-51
2023/02/18 11:17:52;;;;;;;;;;;;;;;;;;5088250;28;19904;-48
2023/02/18 11:20:18;;;;;;;;;;;;;;;;;;5087860;28;19954;-48
2023/02/18 11:22:46;;;;;;;;;;;;;;;;;;5088035;28;20333;-49
2023/02/18 11:25:13;;;;;;;;;;;;;;;;;;5087800;28;19949;-49
2023/02/18 11:27:39;;;;;;;;;;;;;;;;;;5088089;28;20418;-49
2023/02/18 11:30:05;;;;;;;;;;;;;;;;;;5087790;28;19935;-49
2023/02/18 11:32:31;;;;;;;;;;;;;;;;;;5087779;28;19908;-48
2023/02/18 11:34:57;;;;;;;;;;;;;;;;;;5088627;28;19959;-51
2023/02/18 11:37:23;;;;;;;;;;;;;;;;;;5088036;28;19915;-49
2023/02/18 11:39:50;;;;;;;;;;;;;;;;;;5086682;28;20329;-51
2023/02/18 11:42:16;;;;;;;;;;;;;;;;;;5087560;28;19907;-49
2023/02/18 11:44:41;;;;;;;;;;;;;;;;;;5086112;28;20410;-51
2023/02/18 11:47:08;;;;;;;;;;;;;;;;;;5087661;28;19908;-51
2023/02/18 11:49:34;;;;;;;;;;;;;;;;;;5087407;28;19934;-47
2023/02/18 11:52:00;;;;;;;;;;;;;;;;;;5087589;28;19912;-50
2023/02/18 11:54:26;;;;;;;;;;;;;;;;;;5087258;28;19915;-52
2023/02/18 11:56:52;;;;;;;;;;;;;;;;;;5087158;28;19911;-51
2023/02/18 11:59:18;;;;;;;;;;;;;;;;;;5087006;28;19912;-50
2023/02/18 12:01:45;;;;;;;;;;;;;;;;;;5085784;28;20434;-48
2023/02/18 12:04:11;;;;;;;;;;;;;;;;;;5085222;28;19908;-50
2023/02/18 12:06:37;;;;;;;;;;;;;;;;;;5082545;28;19912;-52
2023/02/18 12:09:04;;;;;;;;;;;;;;;;;;5085044;28;19961;-48
2023/02/18 12:11:31;;;;;;;;;;;;;;;;;;5062678;28;19966;-49
2023/02/18 12:13:56;;;;;;;;;;;;;;;;;;5093450;28;19918;-50
2023/02/18 12:16:22;;;;;;;;;;;;;;;;;;5085052;28;20379;-51
2023/02/18 12:18:48;;;;;;;;;;;;;;;;;;5083925;28;19916;-50
2023/02/18 12:21:14;;;;;;;;;;;;;;;;;;5084522;28;19927;-49
2023/02/18 12:23:40;;;;;;;;;;;;;;;;;;5085111;28;19908;-51
2023/02/18 12:26:07;;;;;;;;;;;;;;;;;;5084282;28;19919;-51
2023/02/18 12:28:33;;;;;;;;;;;;;;;;;;5066809;28;20387;-51
2023/02/18 12:31:00;;;;;;;;;;;;;;;;;;5084719;28;19999;-53
2023/02/18 12:33:26;;;;;;;;;;;;;;;;;;5084336;28;19926;-52
2023/02/18 12:35:51;;;;;;;;;;;;;;;;;;5087308;28;19908;-51
2023/02/18 12:38:17;;;;;;;;;;;;;;;;;;5084663;28;20446;-48
2023/02/18 12:40:43;;;;;;;;;;;;;;;;;;5074332;28;19912;-50
2023/02/18 12:43:09;;;;;;;;;;;;;;;;;;5085602;28;20319;-51
2023/02/18 12:45:35;;;;;;;;;;;;;;;;;;5086551;28;19908;-49
2023/02/18 12:48:01;;;;;;;;;;;;;;;;;;5086020;28;19930;-50
2023/02/18 12:50:27;;;;;;;;;;;;;;;;;;5085944;28;19966;-50
2023/02/18 12:52:53;;;;;;;;;;;;;;;;;;5085977;28;19918;-48
2023/02/18 12:55:19;;;;;;;;;;;;;;;;;;5085624;28;19977;-50
2023/02/18 12:57:45;;;;;;;;;;;;;;;;;;5086051;28;19912;-52
2023/02/18 13:00:11;;;;;;;;;;;;;;;;;;5086089;28;19940;-49
2023/02/18 13:02:37;;;;;;;;;;;;;;;;;;5086613;28;19934;-52
2023/02/18 13:05:03;;;;;;;;;;;;;;;;;;5086210;28;19999;-50
2023/02/18 13:07:29;;;;;;;;;;;;;;;;;;5086360;28;19908;-50
2023/02/18 13:09:54;;;;;;;;;;;;;;;;;;5085815;28;19931;-50
2023/02/18 13:12:20;;;;;;;;;;;;;;;;;;5085398;28;19916;-51
2023/02/18 13:14:48;;;;;;;;;;;;;;;;;;5085882;28;19912;-51
2023/02/18 13:17:13;;;;;;;;;;;;;;;;;;5089774;28;19908;-48
2023/02/18 13:19:40;;;;;;;;;;;;;;;;;;5090427;28;19958;-49
2023/02/18 13:22:06;;;;;;;;;;;;;;;;;;5090037;28;19919;-51
2023/02/18 13:24:32;;;;;;;;;;;;;;;;;;5090072;28;19904;-49
2023/02/18 13:26:57;;;;;;;;;;;;;;;;;;5089777;28;19912;-50
2023/02/18 13:29:23;;;;;;;;;;;;;;;;;;5071682;28;19958;-51
2023/02/18 13:31:49;;;;;;;;;;;;;;;;;;5089428;28;19915;-48
2023/02/18 13:34:16;;;;;;;;;;;;;;;;;;5089779;28;19911;-49
2023/02/18 13:36:42;;;;;;;;;;;;;;;;;;5090000;28;20012;-50
2023/02/18 13:39:07;;;;;;;;;;;;;;;;;;5089838;28;19912;-49
2023/02/18 13:41:33;;;;;;;;;;;;;;;;;;5104977;28;19977;-51
2023/02/18 13:43:59;;;;;;;;;;;;;;;;;;5089386;28;19908;-51
2023/02/18 13:46:27;;;;;;;;;;;;;;;;;;5088730;28;19938;-49
2023/02/18 13:48:52;;;;;;;;;;;;;;;;;;5088695;28;19904;-52
2023/02/18 13:51:18;;;;;;;;;;;;;;;;;;5089315;28;19927;-50
2023/02/18 13:53:45;;;;;;;;;;;;;;;;;;5089083;28;19904;-50
2023/02/18 13:56:11;;;;;;;;;;;;;;;;;;5089631;28;19939;-51
2023/02/18 13:58:36;;;;;;;;;;;;;;;;;;5090040;28;19948;-47
2023/02/18 14:01:02;;;;;;;;;;;;;;;;;;5095617;28;19904;-49
2023/02/18 14:03:28;;;;;;;;;;;;;;;;;;5093929;28;19912;-49
2023/02/18 14:05:54;;;;;;;;;;;;;;;;;;5083562;28;19915;-49
2023/02/18 14:08:20;;;;;;;;;;;;;;;;;;5087754;28;19912;-50
2023/02/18 14:10:46;;;;;;;;;;;;;;;;;;5078747;28;19950;-51
2023/02/18 14:13:12;;;;;;;;;;;;;;;;;;5087470;28;19934;-48
2023/02/18 14:15:38;;;;;;;;;;;;;;;;;;5090175;28;19911;-48
2023/02/18 14:18:04;;;;;;;;;;;;;;;;;;5087909;28;19908;-52
2023/02/18 14:20:31;;;;;;;;;;;;;;;;;;5083762;28;19935;-49
2023/02/18 14:22:57;;;;;;;;;;;;;;;;;;5077827;28;19953;-48
2023/02/18 14:25:23;;;;;;;;;;;;;;;;;;5104229;28;19904;-50
2023/02/18 14:27:49;;;;;;;;;;;;;;;;;;5086227;28;20488;-50
2023/02/18 14:30:14;;;;;;;;;;;;;;;;;;5088113;28;19912;-47
2023/02/18 14:32:40;;;;;;;;;;;;;;;;;;5089193;28;19908;-50
2023/02/18 14:35:07;;;;;;;;;;;;;;;;;;5086891;28;19919;-51
2023/02/18 14:37:33;;;;;;;;;;;;;;;;;;5087421;28;20390;-53
2023/02/18 14:39:59;;;;;;;;;;;;;;;;;;5088225;28;20310;-50
2023/02/18 14:42:25;;;;;;;;;;;;;;;;;;5088137;28;19912;-51
2023/02/18 14:44:51;;;;;;;;;;;;;;;;;;5088279;28;19997;-51
2023/02/18 14:47:17;;;;;;;;;;;;;;;;;;5088067;28;19911;-52
2023/02/18 14:49:43;;;;;;;;;;;;;;;;;;5092842;28;19908;-47
2023/02/18 14:52:09;;;;;;;;;;;;;;;;;;5087109;28;19965;-51
2023/02/18 14:54:34;;;;;;;;;;;;;;;;;;5087360;28;19911;-51
2023/02/18 14:57:00;;;;;;;;;;;;;;;;;;5087155;28;19929;-50
2023/02/18 14:59:27;;;;;;;;;;;;;;;;;;5087210;28;19934;-50
2023/02/18 15:01:53;;;;;;;;;;;;;;;;;;5087704;28;20407;-51
2023/02/18 15:04:19;;;;;;;;;;;;;;;;;;5086885;28;20010;-52
2023/02/18 15:06:45;;;;;;;;;;;;;;;;;;5086932;28;20002;-50
2023/02/18 15:09:11;;;;;;;;;;;;;;;;;;5086830;28;19975;-50
2023/02/18 15:11:37;;;;;;;;;;;;;;;;;;5086487;28;19915;-49
2023/02/18 15:14:03;;;;;;;;;;;;;;;;;;5085575;28;19938;-51
2023/02/18 15:16:30;;;;;;;;;;;;;;;;;;5067373;28;19908;-48
2023/02/18 15:18:56;;;;;;;;;;;;;;;;;;5085497;28;19908;-49
2023/02/18 15:21:22;;;;;;;;;;;;;;;;;;5085976;28;19949;-51
2023/02/18 15:23:49;;;;;;;;;;;;;;;;;;5084480;28;19938;-48
2023/02/18 15:26:15;;;;;;;;;;;;;;;;;;5094283;28;20365;-48
2023/02/18 15:28:41;;;;;;;;;;;;;;;;;;5086246;28;19907;-49
2023/02/18 15:31:08;;;;;;;;;;;;;;;;;;5086199;28;20005;-52
2023/02/18 15:33:34;;;;;;;;;;;;;;;;;;5085089;28;19954;-50
2023/02/18 15:36:00;;;;;;;;;;;;;;;;;;5084783;28;20383;-50
2023/02/18 15:38:25;;;;;;;;;;;;;;;;;;5099038;28;19911;-48
2023/02/18 15:40:51;;;;;;;;;;;;;;;;;;5084325;28;19915;-51
2023/02/18 15:43:18;;;;;;;;;;;;;;;;;;5085190;28;19944;-51
2023/02/18 15:45:45;;;;;;;;;;;;;;;;;;5084760;28;20290;-48
2023/02/18 15:48:11;;;;;;;;;;;;;;;;;;5084717;28;19916;-49
2023/02/18 15:50:37;;;;;;;;;;;;;;;;;;5085839;28;19916;-48
2023/02/18 15:53:03;;;;;;;;;;;;;;;;;;5066421;28;19919;-50
2023/02/18 15:55:29;;;;;;;;;;;;;;;;;;5085026;28;19908;-47
2023/02/18 15:57:55;;;;;;;;;;;;;;;;;;5084517;28;20014;-51
2023/02/18 16:00:22;;;;;;;;;;;;;;;;;;5085203;28;19912;-48
2023/02/18 16:02:47;;;;;;;;;;;;;;;;;;5085991;28;19917;-49
2023/02/18 16:05:13;;;;;;;;;;;;;;;;;;5070275;28;19908;-50
2023/02/18 16:07:40;;;;;;;;;;;;;;;;;;5085577;28;20560;-49
2023/02/18 16:10:07;;;;;;;;;;;;;;;;;;5084377;28;20057;-49
2023/02/18 16:12:33;;;;;;;;;;;;;;;;;;5096629;28;19912;-50
2023/02/18 16:14:59;;;;;;;;;;;;;;;;;;5084867;28;20433;-48
2023/02/18 16:17:25;;;;;;;;;;;;;;;;;;5086465;28;19911;-48
2023/02/18 16:19:51;;;;;;;;;;;;;;;;;;5086105;28;19912;-53
2023/02/18 16:22:17;;;;;;;;;;;;;;;;;;5086563;28;19951;-50
2023/02/18 16:24:43;;;;;;;;;;;;;;;;;;5086553;28;19908;-51
2023/02/18 16:27:09;;;;;;;;;;;;;;;;;;5086682;28;19908;-50
2023/02/18 16:29:35;;;;;;;;;;;;;;;;;;5085871;28;19908;-51
2023/02/18 16:32:01;;;;;;;;;;;;;;;;;;5086360;28;20028;-48
2023/02/18 16:34:27;;;;;;;;;;;;;;;;;;5085812;28;19919;-51
2023/02/18 16:39:37;;;;;;;;;;;;;;;;;;5087026;28;19919;-50
2023/02/18 16:42:03;;;;;;;;;;;;;;;;;;5085357;28;19908;-49
2023/02/18 16:44:29;;;;;;;;;;;;;;;;;;5084850;28;20386;-50
2023/02/18 16:46:55;;;;;;;;;;;;;;;;;;5086018;28;19914;-50
2023/02/18 16:49:21;;;;;;;;;;;;;;;;;;5066879;28;20008;-52
2023/02/18 16:51:47;;;;;;;;;;;;;;;;;;5086270;28;19919;-50
2023/02/18 16:54:13;;;;;;;;;;;;;;;;;;5088378;28;19933;-52
2023/02/18 16:56:39;;;;;;;;;;;;;;;;;;5088931;28;19954;-52
2023/02/18 16:59:05;;;;;;;;;;;;;;;;;;5088468;28;19915;-49
2023/02/18 17:01:30;;;;;;;;;;;;;;;;;;5104277;28;19914;-51
2023/02/18 17:03:56;;;;;;;;;;;;;;;;;;5087695;28;21182;-52
2023/02/18 17:06:22;;;;;;;;;;;;;;;;;;5088595;28;19931;-52
2023/02/18 17:08:48;;;;;;;;;;;;;;;;;;5087760;28;20330;-51
2023/02/18 17:11:14;;;;;;;;;;;;;;;;;;5087668;28;20323;-51
2023/02/18 17:13:40;;;;;;;;;;;;;;;;;;5092062;28;19956;-49
2023/02/18 17:16:06;;;;;;;;;;;;;;;;;;5102461;28;19912;-50
2023/02/18 17:18:32;;;;;;;;;;;;;;;;;;5087994;28;20027;-50
2023/02/18 17:20:58;;;;;;;;;;;;;;;;;;5087908;28;19912;-48
2023/02/18 17:23:25;;;;;;;;;;;;;;;;;;5088178;28;19919;-50
2023/02/18 17:25:52;;;;;;;;;;;;;;;;;;5088089;28;19998;-53
2023/02/18 17:28:18;;;;;;;;;;;;;;;;;;5087987;28;19912;-49
2023/02/18 17:30:45;;;;;;;;;;;;;;;;;;5069567;28;19911;-49
2023/02/18 17:33:10;;;;;;;;;;;;;;;;;;5087771;28;19951;-51
2023/02/18 17:35:36;;;;;;;;;;;;;;;;;;5088647;28;20217;-50
2023/02/18 17:38:02;;;;;;;;;;;;;;;;;;5087224;28;19935;-52
2023/02/18 17:40:28;;;;;;;;;;;;;;;;;;5069603;28;19939;-50
2023/02/18 17:42:55;;;;;;;;;;;;;;;;;;5087214;28;19908;-52
2023/02/18 17:45:21;;;;;;;;;;;;;;;;;;5086732;28;19908;-50
2023/02/18 17:47:47;;;;;;;;;;;;;;;;;;5105413;28;19907;-52
2023/02/18 17:50:13;;;;;;;;;;;;;;;;;;5085909;28;19991;-50
2023/02/18 17:52:39;;;;;;;;;;;;;;;;;;5088356;28;19908;-49
2023/02/18 17:55:05;;;;;;;;;;;;;;;;;;5087157;28;19911;-52
2023/02/18 17:57:31;;;;;;;;;;;;;;;;;;5087148;28;19926;-52
2023/02/18 17:59:57;;;;;;;;;;;;;;;;;;5106763;28;20119;-49
2023/02/18 18:02:24;;;;;;;;;;;;;;;;;;5100550;28;19911;-52
2023/02/18 18:04:50;;;;;;;;;;;;;;;;;;5086953;28;20299;-49
2023/02/18 18:07:16;;;;;;;;;;;;;;;;;;5085835;28;19904;-51
2023/02/18 18:09:42;;;;;;;;;;;;;;;;;;5087094;28;19908;-50
2023/02/18 18:12:08;;;;;;;;;;;;;;;;;;5087147;28;20005;-49
2023/02/18 18:14:34;;;;;;;;;;;;;;;;;;5086196;28;19908;-51
2023/02/18 18:17:01;;;;;;;;;;;;;;;;;;5085648;28;19911;-51
2023/02/18 18:19:27;;;;;;;;;;;;;;;;;;5085518;28;20353;-51
2023/02/18 18:21:54;;;;;;;;;;;;;;;;;;5088433;28;19908;-51
2023/02/18 18:24:20;;;;;;;;;;;;;;;;;;5085321;28;19912;-51
2023/02/18 18:26:46;;;;;;;;;;;;;;;;;;5085370;28;20449;-53
2023/02/18 18:29:12;;;;;;;;;;;;;;;;;;5067172;28;20123;-51
2023/02/18 18:31:38;;;;;;;;;;;;;;;;;;5105291;28;20015;-53
2023/02/18 18:34:05;;;;;;;;;;;;;;;;;;5100646;28;19998;-49
2023/02/18 18:36:32;;;;;;;;;;;;;;;;;;5085642;28;20437;-51
2023/02/18 18:38:59;;;;;;;;;;;;;;;;;;5085363;28;19923;-49
2023/02/18 18:41:26;;;;;;;;;;;;;;;;;;5093809;28;20006;-48
2023/02/18 18:43:52;;;;;;;;;;;;;;;;;;5084574;28;19912;-45
2023/02/18 18:46:18;;;;;;;;;;;;;;;;;;5085274;28;19946;-45
2023/02/18 18:48:44;;;;;;;;;;;;;;;;;;5085151;28;19938;-49
2023/02/18 18:51:14;;;;;;;;;;;;;;;;;;5066654;28;19912;-48
2023/02/18 18:53:41;;;;;;;;;;;;;;;;;;5086025;28;20323;-45
2023/02/18 18:56:07;;;;;;;;;;;;;;;;;;5084671;28;19916;-45
2023/02/18 18:58:33;;;;;;;;;;;;;;;;;;5084237;28;19912;-45
2023/02/18 19:00:59;;;;;;;;;;;;;;;;;;5084503;28;19947;-50
2023/02/18 19:03:25;;;;;;;;;;;;;;;;;;5084219;28;19948;-48
2023/02/18 19:05:51;;;;;;;;;;;;;;;;;;5083712;28;19908;-48
2023/02/18 19:08:21;;;;;;;;;;;;;;;;;;5084488;28;19966;-46
2023/02/18 19:10:48;;;;;;;;;;;;;;;;;;5083872;28;19919;-46
2023/02/18 19:13:14;;;;;;;;;;;;;;;;;;5028480;28;1082629;-46
2023/02/18 19:15:39;;;;;;;;;;;;;;;;;;5085820;28;19927;-49
2023/02/18 19:18:05;;;;;;;;;;;;;;;;;;5084909;28;20459;-46
2023/02/18 19:20:34;;;;;;;;;;;;;;;;;;5085073;28;19965;-48
2023/02/18 19:23:00;;;;;;;;;;;;;;;;;;5084581;28;20411;-47
2023/02/18 19:25:26;;;;;;;;;;;;;;;;;;5085038;28;20002;-48
2023/02/18 19:27:52;;;;;;;;;;;;;;;;;;5084966;28;19912;-45
2023/02/18 19:30:18;;;;;;;;;;;;;;;;;;5083929;28;19926;-47
2023/02/18 19:32:43;;;;;;;;;;;;;;;;;;5084763;28;19912;-45
2023/02/18 19:35:09;;;;;;;;;;;;;;;;;;5084884;28;20002;-49
2023/02/18 19:37:35;;;;;;;;;;;;;;;;;;5085150;28;19908;-47
2023/02/18 19:40:01;;;;;;;;;;;;;;;;;;5084369;28;19959;-45
2023/02/18 19:42:28;;;;;;;;;;;;;;;;;;5084551;28;19997;-46
2023/02/18 19:44:54;;;;;;;;;;;;;;;;;;5084787;28;20371;-45
2023/02/18 19:47:20;;;;;;;;;;;;;;;;;;5084763;28;19908;-46
2023/02/18 19:49:46;;;;;;;;;;;;;;;;;;5084975;28;19904;-45
2023/02/18 19:52:12;;;;;;;;;;;;;;;;;;5084592;28;19996;-46
2023/02/18 19:54:38;;;;;;;;;;;;;;;;;;5085613;28;19916;-49
2023/02/18 19:57:06;;;;;;;;;;;;;;;;;;5084252;28;19908;-46
2023/02/18 19:59:32;;;;;;;;;;;;;;;;;;5085273;28;20136;-45
2023/02/18 20:01:58;;;;;;;;;;;;;;;;;;5065295;28;19927;-48
2023/02/18 20:04:24;;;;;;;;;;;;;;;;;;5084801;28;20287;-47
2023/02/18 20:06:50;;;;;;;;;;;;;;;;;;5069611;28;19915;-44
2023/02/18 20:09:17;;;;;;;;;;;;;;;;;;5081984;28;20250;-45
2023/02/18 20:11:43;;;;;;;;;;;;;;;;;;5084481;28;19969;-45
2023/02/18 20:14:09;;;;;;;;;;;;;;;;;;5084483;28;20390;-47
2023/02/18 20:16:35;;;;;;;;;;;;;;;;;;5084257;28;19908;-45
2023/02/18 20:19:01;;;;;;;;;;;;;;;;;;5084363;28;19918;-46
2023/02/18 20:21:29;;;;;;;;;;;;;;;;;;5084234;28;20302;-45
2023/02/18 20:23:55;;;;;;;;;;;;;;;;;;5066343;28;20030;-45
2023/02/18 20:26:21;;;;;;;;;;;;;;;;;;5083930;28;19911;-46
2023/02/18 20:28:48;;;;;;;;;;;;;;;;;;5065812;28;19947;-48
2023/02/18 20:31:15;;;;;;;;;;;;;;;;;;5083969;28;20027;-46
2023/02/18 20:33:43;;;;;;;;;;;;;;;;;;5085049;28;19929;-45
2023/02/18 20:36:10;;;;;;;;;;;;;;;;;;5084014;28;20290;-46
2023/02/18 20:38:37;;;;;;;;;;;;;;;;;;5084820;28;19953;-46
2023/02/18 20:41:04;;;;;;;;;;;;;;;;;;5083631;28;19982;-44
2023/02/18 20:43:31;;;;;;;;;;;;;;;;;;5083972;28;19998;-48
2023/02/18 20:45:58;;;;;;;;;;;;;;;;;;5084194;28;19908;-46
2023/02/18 20:48:24;;;;;;;;;;;;;;;;;;5084740;28;19904;-47
2023/02/18 20:50:50;;;;;;;;;;;;;;;;;;5084100;28;19961;-47
2023/02/18 20:53:16;;;;;;;;;;;;;;;;;;5083774;28;19908;-46
2023/02/18 20:55:42;;;;;;;;;;;;;;;;;;5084141;28;19954;-47
2023/02/18 20:58:07;;;;;;;;;;;;;;;;;;5085164;28;19922;-46
2023/02/18 21:00:33;;;;;;;;;;;;;;;;;;5083869;28;19962;-45
2023/02/18 21:03:00;;;;;;;;;;;;;;;;;;5083865;28;19912;-46
2023/02/18 21:05:27;;;;;;;;;;;;;;;;;;5094545;28;20327;-45
2023/02/18 21:07:53;;;;;;;;;;;;;;;;;;5083464;28;20436;-44
2023/02/18 21:10:20;;;;;;;;;;;;;;;;;;5089548;28;19912;-45
2023/02/18 21:12:46;;;;;;;;;;;;;;;;;;5104764;28;20350;-46
2023/02/18 21:15:11;;;;;;;;;;;;;;;;;;5071900;28;19939;-46
2023/02/18 21:17:38;;;;;;;;;;;;;;;;;;5085294;28;19918;-47
2023/02/18 21:20:04;;;;;;;;;;;;;;;;;;5083456;28;19912;-48
2023/02/18 21:22:31;;;;;;;;;;;;;;;;;;5065834;28;19990;-45
2023/02/18 21:24:58;;;;;;;;;;;;;;;;;;5082852;28;20268;-48
2023/02/18 21:27:24;;;;;;;;;;;;;;;;;;5083648;28;19946;-47
2023/02/18 21:29:50;;;;;;;;;;;;;;;;;;5083565;28;19955;-46
2023/02/18 21:32:16;;;;;;;;;;;;;;;;;;5083978;28;20007;-48
2023/02/18 21:34:42;;;;;;;;;;;;;;;;;;5083785;28;20442;-47
2023/02/18 21:37:08;;;;;;;;;;;;;;;;;;5086081;28;19918;-48
2023/02/18 21:39:34;;;;;;;;;;;;;;;;;;5103398;28;19908;-48
2023/02/18 21:42:02;;;;;;;;;;;;;;;;;;5087044;28;19951;-46
2023/02/18 21:44:29;;;;;;;;;;;;;;;;;;5069349;28;20014;-47
2023/02/18 21:46:56;;;;;;;;;;;;;;;;;;5087084;28;19954;-45
2023/02/18 21:49:23;;;;;;;;;;;;;;;;;;5087267;28;19915;-46